sensor_id;sensor_type;location;lat;lon;timestamp;pressure;altitude;pressure_sealevel;temperature;humidity
50093;BME280;35974;47.752;10.290;2023-03-21T00:00:53;94029.91;;;3.97;100.00
50093;BME280;35974;47.752;10.290;2023-03-21T00:03:20;94022.75;;;3.91;100.00
50093;BME280;35974;47.752;10.290;2023-03-21T00:05:46;94038.31;;;3.91;100.00
50093;BME280;35974;47.752;10.290;2023-03-21T00:08:17;94028.53;;;3.69;100.00
50093;BME280;35974;47.752;10.290;2023-03-21T00:10:43;94026.75;;;3.61;100.00
50093;BME280;35974;47.752;10.290;2023-03-21T00:13:14;94044.44;;;3.82;100.00
50093;BME280;35974;47.752;10.290;2023-03-21T00:15:41;93993.50;;;3.23;100.00
50093;BME280;35974;47.752;10.290;2023-03-21T00:18:36;94020.38;;;3.39;100.00
50093;BME280;35974;47.752;10.290;2023-03-21T00:21:09;94056.84;;;3.70;100.00
50093;BME280;35974;47.752;10.290;2023-03-21T00:23:57;94018.31;;;3.59;100.00
50093;BME280;35974;47.752;10.290;2023-03-21T00:26:24;94025.00;;;3.70;100.00
50093;BME280;35974;47.752;10.290;2023-03-21T00:28:51;94035.69;;;3.83;100.00
50093;BME280;35974;47.752;10.290;2023-03-21T00:31:17;94010.41;;;3.60;100.00
50093;BME280;35974;47.752;10.290;2023-03-21T00:33:44;94014.97;;;3.75;100.00
50093;BME280;35974;47.752;10.290;2023-03-21T00:36:11;94034.44;;;3.95;100.00
50093;BME280;35974;47.752;10.290;2023-03-21T00:38:39;93996.06;;;3.74;100.00
50093;BME280;35974;47.752;10.290;2023-03-21T00:41:07;93991.03;;;3.64;100.00
50093;BME280;35974;47.752;10.290;2023-03-21T00:43:51;93981.97;;;3.69;100.00
50093;BME280;35974;47.752;10.290;2023-03-21T00:46:20;93982.31;;;3.74;100.00
50093;BME280;35974;47.752;10.290;2023-03-21T00:48:50;93930.50;;;3.49;100.00
50093;BME280;35974;47.752;10.290;2023-03-21T00:51:20;93983.94;;;3.83;100.00
50093;BME280;35974;47.752;10.290;2023-03-21T00:53:55;93975.84;;;3.78;100.00
50093;BME280;35974;47.752;10.290;2023-03-21T00:56:22;93979.72;;;3.74;100.00
50093;BME280;35974;47.752;10.290;2023-03-21T00:58:49;93970.03;;;3.84;100.00
50093;BME280;35974;47.752;10.290;2023-03-21T01:01:17;93993.03;;;4.12;100.00
50093;BME280;35974;47.752;10.290;2023-03-21T01:03:43;93953.47;;;3.60;100.00
50093;BME280;35974;47.752;10.290;2023-03-21T01:06:17;93958.97;;;3.57;100.00
50093;BME280;35974;47.752;10.290;2023-03-21T01:08:46;93996.53;;;3.78;100.00
50093;BME280;35974;47.752;10.290;2023-03-21T01:11:24;93993.94;;;3.70;100.00
50093;BME280;35974;47.752;10.290;2023-03-21T01:13:51;93958.63;;;3.44;100.00
50093;BME280;35974;47.752;10.290;2023-03-21T01:16:30;93986.16;;;3.61;100.00
50093;BME280;35974;47.752;10.290;2023-03-21T01:18:57;93982.63;;;3.62;100.00
50093;BME280;35974;47.752;10.290;2023-03-21T01:21:23;93962.53;;;3.56;100.00
50093;BME280;35974;47.752;10.290;2023-03-21T01:23:50;93963.84;;;3.77;100.00
50093;BME280;35974;47.752;10.290;2023-03-21T01:26:16;93952.53;;;3.70;100.00
50093;BME280;35974;47.752;10.290;2023-03-21T01:28:43;93984.56;;;3.77;100.00
50093;BME280;35974;47.752;10.290;2023-03-21T01:31:12;93932.44;;;3.47;100.00
50093;BME280;35974;47.752;10.290;2023-03-21T01:33:40;93984.41;;;3.87;100.00
50093;BME280;35974;47.752;10.290;2023-03-21T01:36:08;93984.59;;;3.93;100.00
50093;BME280;35974;47.752;10.290;2023-03-21T01:38:40;93944.78;;;3.70;100.00
50093;BME280;35974;47.752;10.290;2023-03-21T01:41:17;93942.50;;;3.83;100.00
50093;BME280;35974;47.752;10.290;2023-03-21T01:43:45;93953.84;;;3.90;100.00
50093;BME280;35974;47.752;10.290;2023-03-21T01:46:33;93975.22;;;4.17;100.00
50093;BME280;35974;47.752;10.290;2023-03-21T01:49:33;93935.41;;;3.93;100.00
50093;BME280;35974;47.752;10.290;2023-03-21T01:52:10;93966.16;;;4.21;100.00
50093;BME280;35974;47.752;10.290;2023-03-21T01:54:51;93954.97;;;4.04;100.00
50093;BME280;35974;47.752;10.290;2023-03-21T01:57:24;93977.47;;;4.28;100.00
50093;BME280;35974;47.752;10.290;2023-03-21T02:00:09;93932.50;;;4.13;100.00
50093;BME280;35974;47.752;10.290;2023-03-21T02:02:39;93937.69;;;4.05;100.00
50093;BME280;35974;47.752;10.290;2023-03-21T02:05:19;93945.47;;;4.05;100.00
50093;BME280;35974;47.752;10.290;2023-03-21T02:07:47;93944.78;;;4.11;100.00
50093;BME280;35974;47.752;10.290;2023-03-21T02:10:15;93948.03;;;4.05;100.00
50093;BME280;35974;47.752;10.290;2023-03-21T02:12:42;93966.16;;;4.21;100.00
50093;BME280;35974;47.752;10.290;2023-03-21T02:15:09;93969.41;;;4.23;100.00
50093;BME280;35974;47.752;10.290;2023-03-21T02:17:43;93961.63;;;4.23;100.00
50093;BME280;35974;47.752;10.290;2023-03-21T02:26:09;93891.06;;;3.80;100.00
50093;BME280;35974;47.752;10.290;2023-03-21T02:28:59;93954.19;;;4.20;100.00
50093;BME280;35974;47.752;10.290;2023-03-21T02:34:22;93940.13;;;4.14;100.00
50093;BME280;35974;47.752;10.290;2023-03-21T02:37:13;93932.16;;;3.99;100.00
50093;BME280;35974;47.752;10.290;2023-03-21T02:39:57;93940.59;;;4.18;100.00
50093;BME280;35974;47.752;10.290;2023-03-21T02:42:38;93933.31;;;4.05;100.00
50093;BME280;35974;47.752;10.290;2023-03-21T02:45:20;93932.81;;;4.10;100.00
50093;BME280;35974;47.752;10.290;2023-03-21T02:47:51;93926.03;;;4.09;100.00
50093;BME280;35974;47.752;10.290;2023-03-21T02:50:23;93940.56;;;4.34;100.00
50093;BME280;35974;47.752;10.290;2023-03-21T02:52:52;93914.03;;;4.08;100.00
50093;BME280;35974;47.752;10.290;2023-03-21T02:55:23;93913.72;;;4.11;100.00
50093;BME280;35974;47.752;10.290;2023-03-21T02:57:53;93919.06;;;4.09;100.00
50093;BME280;35974;47.752;10.290;2023-03-21T03:00:25;93920.66;;;4.27;100.00
50093;BME280;35974;47.752;10.290;2023-03-21T03:02:53;93922.78;;;4.23;100.00
50093;BME280;35974;47.752;10.290;2023-03-21T03:05:36;93929.56;;;4.32;100.00
50093;BME280;35974;47.752;10.290;2023-03-21T03:11:13;93943.16;;;4.43;100.00
50093;BME280;35974;47.752;10.290;2023-03-21T03:20:32;93914.38;;;4.21;100.00
50093;BME280;35974;47.752;10.290;2023-03-21T03:22:47;93933.41;;;4.53;100.00
50093;BME280;35974;47.752;10.290;2023-03-21T03:25:23;93930.97;;;4.51;100.00
50093;BME280;35974;47.752;10.290;2023-03-21T03:28:08;93908.50;;;4.27;100.00
50093;BME280;35974;47.752;10.290;2023-03-21T03:30:37;93883.28;;;4.21;100.00
50093;BME280;35974;47.752;10.290;2023-03-21T03:33:20;93934.38;;;4.60;100.00
50093;BME280;35974;47.752;10.290;2023-03-21T03:35:49;93928.88;;;4.55;100.00
50093;BME280;35974;47.752;10.290;2023-03-21T03:38:31;93907.22;;;4.39;100.00
50093;BME280;35974;47.752;10.290;2023-03-21T03:41:01;93894.59;;;4.36;100.00
50093;BME280;35974;47.752;10.290;2023-03-21T03:43:39;93882.59;;;4.44;100.00
50093;BME280;35974;47.752;10.290;2023-03-21T03:46:18;93896.50;;;4.43;100.00
50093;BME280;35974;47.752;10.290;2023-03-21T03:48:57;93888.44;;;4.37;100.00
50093;BME280;35974;47.752;10.290;2023-03-21T03:51:27;93930.47;;;4.64;100.00
50093;BME280;35974;47.752;10.290;2023-03-21T03:53:58;93905.91;;;4.44;100.00
50093;BME280;35974;47.752;10.290;2023-03-21T03:56:27;93904.28;;;4.51;100.00
50093;BME280;35974;47.752;10.290;2023-03-21T03:58:55;93885.81;;;4.46;100.00
50093;BME280;35974;47.752;10.290;2023-03-21T04:01:22;93896.66;;;4.49;100.00
50093;BME280;35974;47.752;10.290;2023-03-21T04:03:49;93907.78;;;4.66;100.00
50093;BME280;35974;47.752;10.290;2023-03-21T04:06:24;93932.22;;;4.80;100.00
50093;BME280;35974;47.752;10.290;2023-03-21T04:08:51;93903.28;;;4.60;100.00
50093;BME280;35974;47.752;10.290;2023-03-21T04:11:17;93903.91;;;4.62;100.00
50093;BME280;35974;47.752;10.290;2023-03-21T04:13:44;93912.31;;;4.72;100.00
50093;BME280;35974;47.752;10.290;2023-03-21T04:16:10;93899.03;;;4.67;100.00
50093;BME280;35974;47.752;10.290;2023-03-21T04:18:38;93890.00;;;4.63;100.00
50093;BME280;35974;47.752;10.290;2023-03-21T04:21:07;93888.06;;;4.57;100.00
50093;BME280;35974;47.752;10.290;2023-03-21T04:23:34;93910.81;;;4.86;100.00
50093;BME280;35974;47.752;10.290;2023-03-21T04:26:02;93925.06;;;4.82;100.00
50093;BME280;35974;47.752;10.290;2023-03-21T04:28:29;93884.97;;;4.62;100.00
50093;BME280;35974;47.752;10.290;2023-03-21T04:30:55;93901.66;;;4.59;100.00
50093;BME280;35974;47.752;10.290;2023-03-21T04:33:32;93917.00;;;4.69;100.00
50093;BME280;35974;47.752;10.290;2023-03-21T04:36:05;93893.53;;;4.70;100.00
50093;BME280;35974;47.752;10.290;2023-03-21T04:38:32;93921.69;;;4.82;100.00
50093;BME280;35974;47.752;10.290;2023-03-21T04:40:59;93929.09;;;4.93;100.00
50093;BME280;35974;47.752;10.290;2023-03-21T04:43:26;93926.81;;;4.98;100.00
50093;BME280;35974;47.752;10.290;2023-03-21T04:45:53;93915.84;;;4.88;100.00
50093;BME280;35974;47.752;10.290;2023-03-21T04:48:20;93902.22;;;4.86;100.00
50093;BME280;35974;47.752;10.290;2023-03-21T04:50:50;93894.47;;;4.77;100.00
50093;BME280;35974;47.752;10.290;2023-03-21T04:53:17;93907.38;;;4.94;100.00
50093;BME280;35974;47.752;10.290;2023-03-21T04:55:43;93924.50;;;5.03;100.00
50093;BME280;35974;47.752;10.290;2023-03-21T04:58:10;93847.88;;;4.61;100.00
50093;BME280;35974;47.752;10.290;2023-03-21T05:00:39;93898.13;;;5.00;100.00
50093;BME280;35974;47.752;10.290;2023-03-21T05:03:06;93917.19;;;5.15;100.00
50093;BME280;35974;47.752;10.290;2023-03-21T05:05:42;93900.19;;;5.04;100.00
50093;BME280;35974;47.752;10.290;2023-03-21T05:08:08;93907.03;;;5.05;100.00
50093;BME280;35974;47.752;10.290;2023-03-21T05:10:34;93853.81;;;4.78;100.00
50093;BME280;35974;47.752;10.290;2023-03-21T05:13:01;93895.34;;;5.01;100.00
50093;BME280;35974;47.752;10.290;2023-03-21T05:15:27;93905.06;;;5.07;100.00
50093;BME280;35974;47.752;10.290;2023-03-21T05:17:54;93895.00;;;5.04;100.00
50093;BME280;35974;47.752;10.290;2023-03-21T05:20:20;93891.78;;;5.02;100.00
50093;BME280;35974;47.752;10.290;2023-03-21T05:22:47;93862.34;;;4.87;100.00
50093;BME280;35974;47.752;10.290;2023-03-21T05:25:17;93909.22;;;5.17;100.00
50093;BME280;35974;47.752;10.290;2023-03-21T05:27:46;93868.94;;;4.98;100.00
50093;BME280;35974;47.752;10.290;2023-03-21T05:30:19;93892.72;;;5.09;100.00
50093;BME280;35974;47.752;10.290;2023-03-21T05:32:47;93837.78;;;4.74;100.00
50093;BME280;35974;47.752;10.290;2023-03-21T05:35:13;93874.28;;;5.04;100.00
50093;BME280;35974;47.752;10.290;2023-03-21T05:37:39;93873.81;;;5.01;100.00
50093;BME280;35974;47.752;10.290;2023-03-21T05:40:06;93899.78;;;5.24;100.00
50093;BME280;35974;47.752;10.290;2023-03-21T05:42:33;93886.53;;;5.19;100.00
50093;BME280;35974;47.752;10.290;2023-03-21T05:45:00;93887.19;;;5.12;100.00
50093;BME280;35974;47.752;10.290;2023-03-21T05:47:26;93900.06;;;5.29;100.00
50093;BME280;35974;47.752;10.290;2023-03-21T05:49:53;93902.34;;;5.32;100.00
50093;BME280;35974;47.752;10.290;2023-03-21T05:52:19;93890.66;;;5.28;100.00
50093;BME280;35974;47.752;10.290;2023-03-21T05:54:46;93881.00;;;5.22;100.00
50093;BME280;35974;47.752;10.290;2023-03-21T05:57:13;93903.63;;;5.36;100.00
50093;BME280;35974;47.752;10.290;2023-03-21T05:59:39;93904.53;;;5.43;100.00
50093;BME280;35974;47.752;10.290;2023-03-21T06:02:06;93886.00;;;5.23;100.00
50093;BME280;35974;47.752;10.290;2023-03-21T06:04:32;93880.28;;;5.36;100.00
50093;BME280;35974;47.752;10.290;2023-03-21T06:06:59;93856.31;;;5.26;100.00
50093;BME280;35974;47.752;10.290;2023-03-21T06:09:25;93893.72;;;5.63;100.00
50093;BME280;35974;47.752;10.290;2023-03-21T06:11:53;93908.16;;;5.89;100.00
50093;BME280;35974;47.752;10.290;2023-03-21T06:14:22;93916.00;;;5.80;100.00
50093;BME280;35974;47.752;10.290;2023-03-21T06:16:48;93905.16;;;5.77;100.00
50093;BME280;35974;47.752;10.290;2023-03-21T06:19:15;93891.34;;;5.76;100.00
50093;BME280;35974;47.752;10.290;2023-03-21T06:21:42;93890.03;;;5.80;100.00
50093;BME280;35974;47.752;10.290;2023-03-21T06:24:08;93887.38;;;5.89;100.00
50093;BME280;35974;47.752;10.290;2023-03-21T06:26:35;93887.25;;;5.82;100.00
50093;BME280;35974;47.752;10.290;2023-03-21T06:29:02;93920.41;;;6.03;100.00
50093;BME280;35974;47.752;10.290;2023-03-21T06:31:29;93902.91;;;5.97;100.00
50093;BME280;35974;47.752;10.290;2023-03-21T06:33:55;93914.88;;;6.06;100.00
50093;BME280;35974;47.752;10.290;2023-03-21T06:36:22;93897.66;;;6.05;100.00
50093;BME280;35974;47.752;10.290;2023-03-21T06:38:48;93888.81;;;6.14;100.00
50093;BME280;35974;47.752;10.290;2023-03-21T06:41:15;93914.00;;;6.29;100.00
50093;BME280;35974;47.752;10.290;2023-03-21T06:43:42;93924.63;;;6.42;100.00
50093;BME280;35974;47.752;10.290;2023-03-21T06:46:09;93903.16;;;6.25;100.00
50093;BME280;35974;47.752;10.290;2023-03-21T06:48:35;93826.00;;;5.87;100.00
50093;BME280;35974;47.752;10.290;2023-03-21T06:51:02;93892.78;;;6.40;100.00
50093;BME280;35974;47.752;10.290;2023-03-21T06:53:30;93894.84;;;6.59;100.00
50093;BME280;35974;47.752;10.290;2023-03-21T06:55:56;93889.66;;;6.59;100.00
50093;BME280;35974;47.752;10.290;2023-03-21T06:58:23;93907.63;;;6.84;100.00
50093;BME280;35974;47.752;10.290;2023-03-21T07:00:49;93911.56;;;6.80;100.00
50093;BME280;35974;47.752;10.290;2023-03-21T07:03:16;93906.00;;;6.83;100.00
50093;BME280;35974;47.752;10.290;2023-03-21T07:05:42;93892.38;;;6.81;100.00
50093;BME280;35974;47.752;10.290;2023-03-21T07:08:09;93932.34;;;7.10;100.00
50093;BME280;35974;47.752;10.290;2023-03-21T07:10:40;93932.59;;;7.30;100.00
50093;BME280;35974;47.752;10.290;2023-03-21T07:13:09;93887.28;;;7.24;100.00
50093;BME280;35974;47.752;10.290;2023-03-21T07:15:36;93923.31;;;7.57;100.00
50093;BME280;35974;47.752;10.290;2023-03-21T07:18:04;93923.44;;;7.70;100.00
50093;BME280;35974;47.752;10.290;2023-03-21T07:20:31;93887.72;;;7.64;100.00
50093;BME280;35974;47.752;10.290;2023-03-21T07:22:58;93921.47;;;7.73;100.00
50093;BME280;35974;47.752;10.290;2023-03-21T07:25:25;93924.31;;;7.78;100.00
50093;BME280;35974;47.752;10.290;2023-03-21T07:27:52;93886.84;;;7.57;100.00
50093;BME280;35974;47.752;10.290;2023-03-21T07:30:21;93913.16;;;7.84;100.00
50093;BME280;35974;47.752;10.290;2023-03-21T07:32:47;93918.38;;;7.84;100.00
50093;BME280;35974;47.752;10.290;2023-03-21T07:35:16;93916.75;;;7.83;100.00
50093;BME280;35974;47.752;10.290;2023-03-21T07:37:43;93905.94;;;7.86;100.00
50093;BME280;35974;47.752;10.290;2023-03-21T07:40:10;93892.06;;;8.00;100.00
50093;BME280;35974;47.752;10.290;2023-03-21T07:42:39;93896.53;;;8.06;100.00
50093;BME280;35974;47.752;10.290;2023-03-21T07:45:06;93918.84;;;8.37;100.00
50093;BME280;35974;47.752;10.290;2023-03-21T07:47:34;93892.16;;;8.14;100.00
50093;BME280;35974;47.752;10.290;2023-03-21T07:50:01;93889.59;;;8.20;100.00
50093;BME280;35974;47.752;10.290;2023-03-21T07:52:30;93925.03;;;8.58;100.00
50093;BME280;35974;47.752;10.290;2023-03-21T07:54:56;93912.22;;;8.63;100.00
50093;BME280;35974;47.752;10.290;2023-03-21T07:57:23;93891.78;;;8.67;100.00
50093;BME280;35974;47.752;10.290;2023-03-21T07:59:49;93908.38;;;8.87;100.00
50093;BME280;35974;47.752;10.290;2023-03-21T08:02:16;93891.06;;;8.79;100.00
50093;BME280;35974;47.752;10.290;2023-03-21T08:04:43;93879.03;;;8.85;100.00
50093;BME280;35974;47.752;10.290;2023-03-21T08:07:10;93933.81;;;9.13;100.00
50093;BME280;35974;47.752;10.290;2023-03-21T08:09:37;93916.75;;;9.18;100.00
50093;BME280;35974;47.752;10.290;2023-03-21T08:12:04;93883.16;;;9.08;100.00
50093;BME280;35974;47.752;10.290;2023-03-21T08:14:31;93889.31;;;9.35;100.00
50093;BME280;35974;47.752;10.290;2023-03-21T08:16:58;93904.25;;;9.55;100.00
50093;BME280;35974;47.752;10.290;2023-03-21T08:19:25;93871.63;;;9.37;100.00
50093;BME280;35974;47.752;10.290;2023-03-21T08:21:52;93876.16;;;9.77;100.00
50093;BME280;35974;47.752;10.290;2023-03-21T08:24:18;93905.53;;;9.92;100.00
50093;BME280;35974;47.752;10.290;2023-03-21T08:26:45;93880.16;;;9.66;100.00
50093;BME280;35974;47.752;10.290;2023-03-21T08:29:12;93889.84;;;9.99;100.00
50093;BME280;35974;47.752;10.290;2023-03-21T08:31:39;93903.56;;;10.21;100.00
50093;BME280;35974;47.752;10.290;2023-03-21T08:34:07;93912.03;;;10.43;100.00
50093;BME280;35974;47.752;10.290;2023-03-21T08:36:35;93897.94;;;10.44;100.00
50093;BME280;35974;47.752;10.290;2023-03-21T08:39:03;93884.28;;;10.35;100.00
50093;BME280;35974;47.752;10.290;2023-03-21T08:41:35;93896.25;;;10.96;99.42
50093;BME280;35974;47.752;10.290;2023-03-21T08:44:03;93890.25;;;10.89;99.98
50093;BME280;35974;47.752;10.290;2023-03-21T08:46:30;93899.91;;;10.95;100.00
50093;BME280;35974;47.752;10.290;2023-03-21T08:48:56;93909.94;;;11.12;100.00
50093;BME280;35974;47.752;10.290;2023-03-21T08:51:23;93897.38;;;11.27;99.69
50093;BME280;35974;47.752;10.290;2023-03-21T08:53:49;93876.84;;;11.17;98.89
50093;BME280;35974;47.752;10.290;2023-03-21T08:56:17;93904.97;;;11.49;99.38
50093;BME280;35974;47.752;10.290;2023-03-21T08:58:43;93874.09;;;11.06;98.15
50093;BME280;35974;47.752;10.290;2023-03-21T09:01:10;93881.47;;;11.22;95.76
50093;BME280;35974;47.752;10.290;2023-03-21T09:03:42;93894.06;;;11.52;95.98
50093;BME280;35974;47.752;10.290;2023-03-21T09:06:09;93882.28;;;11.68;96.22
50093;BME280;35974;47.752;10.290;2023-03-21T09:08:39;93890.84;;;11.50;93.73
50093;BME280;35974;47.752;10.290;2023-03-21T09:11:08;93880.72;;;11.60;95.93
50093;BME280;35974;47.752;10.290;2023-03-21T09:13:35;93868.63;;;11.59;94.32
50093;BME280;35974;47.752;10.290;2023-03-21T09:16:02;93886.22;;;11.84;93.64
50093;BME280;35974;47.752;10.290;2023-03-21T09:18:29;93877.03;;;12.06;92.88
50093;BME280;35974;47.752;10.290;2023-03-21T09:21:13;93889.31;;;12.13;92.45
50093;BME280;35974;47.752;10.290;2023-03-21T09:23:41;93875.69;;;11.97;91.35
50093;BME280;35974;47.752;10.290;2023-03-21T09:26:10;93885.16;;;12.30;89.41
50093;BME280;35974;47.752;10.290;2023-03-21T09:28:37;93884.06;;;12.13;89.59
50093;BME280;35974;47.752;10.290;2023-03-21T09:31:04;93885.53;;;12.34;90.47
50093;BME280;35974;47.752;10.290;2023-03-21T09:33:31;93881.47;;;12.81;89.49
50093;BME280;35974;47.752;10.290;2023-03-21T09:35:58;93880.03;;;12.86;89.54
50093;BME280;35974;47.752;10.290;2023-03-21T09:38:26;93890.69;;;13.28;88.11
50093;BME280;35974;47.752;10.290;2023-03-21T09:43:34;93887.81;;;13.11;87.45
50093;BME280;35974;47.752;10.290;2023-03-21T09:48:54;93885.16;;;13.36;87.89
50093;BME280;35974;47.752;10.290;2023-03-21T09:51:26;93874.78;;;13.41;86.64
50093;BME280;35974;47.752;10.290;2023-03-21T09:53:54;93874.69;;;13.48;86.83
50093;BME280;35974;47.752;10.290;2023-03-21T09:56:23;93849.59;;;13.15;87.30
50093;BME280;35974;47.752;10.290;2023-03-21T09:58:54;93878.34;;;13.47;84.59
50093;BME280;35974;47.752;10.290;2023-03-21T10:01:25;93877.28;;;13.36;85.04
50093;BME280;35974;47.752;10.290;2023-03-21T10:03:55;93878.72;;;13.50;86.20
50093;BME280;35974;47.752;10.290;2023-03-21T10:06:23;93844.63;;;13.25;86.94
50093;BME280;35974;47.752;10.290;2023-03-21T10:11:30;93873.75;;;13.61;84.76
50093;BME280;35974;47.752;10.290;2023-03-21T10:14:05;93868.38;;;13.67;85.42
50093;BME280;35974;47.752;10.290;2023-03-21T10:16:44;93866.28;;;13.76;86.54
50093;BME280;35974;47.752;10.290;2023-03-21T10:19:13;93848.31;;;14.15;84.68
50093;BME280;35974;47.752;10.290;2023-03-21T10:21:43;93775.94;;;13.40;84.62
50093;BME280;35974;47.752;10.290;2023-03-21T10:24:31;93854.69;;;14.19;85.04
50093;BME280;35974;47.752;10.290;2023-03-21T10:27:00;93823.44;;;13.99;84.49
50093;BME280;35974;47.752;10.290;2023-03-21T10:29:40;93850.63;;;13.81;83.65
50093;BME280;35974;47.752;10.290;2023-03-21T10:32:12;93842.38;;;13.47;86.45
50093;BME280;35974;47.752;10.290;2023-03-21T10:34:52;93818.53;;;14.03;83.76
50093;BME280;35974;47.752;10.290;2023-03-21T10:37:22;93814.03;;;13.91;84.50
50093;BME280;35974;47.752;10.290;2023-03-21T10:39:51;93821.28;;;14.08;84.43
50093;BME280;35974;47.752;10.290;2023-03-21T10:42:24;93832.25;;;14.05;84.21
50093;BME280;35974;47.752;10.290;2023-03-21T10:44:54;93797.41;;;13.79;84.98
50093;BME280;35974;47.752;10.290;2023-03-21T10:47:30;93843.88;;;13.85;84.13
50093;BME280;35974;47.752;10.290;2023-03-21T10:50:03;93808.66;;;13.26;84.28
50093;BME280;35974;47.752;10.290;2023-03-21T10:52:34;93839.00;;;13.40;85.78
50093;BME280;35974;47.752;10.290;2023-03-21T10:55:22;93836.72;;;14.04;84.24
50093;BME280;35974;47.752;10.290;2023-03-21T10:58:17;93834.38;;;13.84;81.58
50093;BME280;35974;47.752;10.290;2023-03-21T11:00:57;93828.53;;;13.82;84.44
50093;BME280;35974;47.752;10.290;2023-03-21T11:03:34;93827.03;;;14.52;82.75
50093;BME280;35974;47.752;10.290;2023-03-21T11:06:07;93842.56;;;14.18;82.11
50093;BME280;35974;47.752;10.290;2023-03-21T11:08:44;93831.47;;;14.16;82.35
50093;BME280;35974;47.752;10.290;2023-03-21T11:11:19;93835.72;;;14.41;82.85
50093;BME280;35974;47.752;10.290;2023-03-21T11:13:55;93828.19;;;14.80;78.05
50093;BME280;35974;47.752;10.290;2023-03-21T11:16:24;93825.19;;;14.88;77.07
50093;BME280;35974;47.752;10.290;2023-03-21T11:18:59;93812.19;;;14.70;79.64
50093;BME280;35974;47.752;10.290;2023-03-21T11:21:26;93784.22;;;14.69;78.72
50093;BME280;35974;47.752;10.290;2023-03-21T11:23:55;93786.53;;;14.77;75.30
50093;BME280;35974;47.752;10.290;2023-03-21T11:26:29;93800.28;;;15.19;73.50
50093;BME280;35974;47.752;10.290;2023-03-21T11:28:57;93804.09;;;15.12;73.78
50093;BME280;35974;47.752;10.290;2023-03-21T11:31:40;93785.44;;;15.01;75.75
50093;BME280;35974;47.752;10.290;2023-03-21T11:34:08;93809.88;;;14.85;73.78
50093;BME280;35974;47.752;10.290;2023-03-21T11:36:36;93795.91;;;14.73;74.35
50093;BME280;35974;47.752;10.290;2023-03-21T11:41:39;93805.41;;;14.50;74.35
50093;BME280;35974;47.752;10.290;2023-03-21T11:44:24;93808.28;;;14.37;74.50
50093;BME280;35974;47.752;10.290;2023-03-21T11:46:51;93779.41;;;14.18;74.60
50093;BME280;35974;47.752;10.290;2023-03-21T11:49:20;93779.31;;;14.25;74.66
50093;BME280;35974;47.752;10.290;2023-03-21T11:55:20;93802.06;;;13.96;77.04
50093;BME280;35974;47.752;10.290;2023-03-21T11:58:00;93794.06;;;14.26;77.49
50093;BME280;35974;47.752;10.290;2023-03-21T12:00:47;93798.09;;;14.76;76.03
50093;BME280;35974;47.752;10.290;2023-03-21T12:06:01;93776.69;;;14.37;75.12
50093;BME280;35974;47.752;10.290;2023-03-21T12:22:55;93770.72;;;14.53;76.95
50093;BME280;35974;47.752;10.290;2023-03-21T12:25:29;93777.38;;;14.68;74.75
50093;BME280;35974;47.752;10.290;2023-03-21T12:38:50;93751.03;;;14.68;70.83
50093;BME280;35974;47.752;10.290;2023-03-21T12:41:27;93748.06;;;14.76;69.56
50093;BME280;35974;47.752;10.290;2023-03-21T12:44:04;93750.13;;;14.50;70.20
50093;BME280;35974;47.752;10.290;2023-03-21T12:49:15;93740.03;;;14.47;69.83
50093;BME280;35974;47.752;10.290;2023-03-21T12:51:46;93717.28;;;14.64;69.58
50093;BME280;35974;47.752;10.290;2023-03-21T12:57:16;93712.44;;;14.73;68.61
50093;BME280;35974;47.752;10.290;2023-03-21T12:59:54;93696.72;;;14.90;67.85
50093;BME280;35974;47.752;10.290;2023-03-21T13:02:37;93724.34;;;15.62;66.06
50093;BME280;35974;47.752;10.290;2023-03-21T13:07:48;93721.94;;;16.11;64.70
50093;BME280;35974;47.752;10.290;2023-03-21T13:10:19;93716.13;;;16.48;60.32
50093;BME280;35974;47.752;10.290;2023-03-21T13:13:07;93718.72;;;16.43;61.63
50093;BME280;35974;47.752;10.290;2023-03-21T13:18:37;93703.19;;;15.91;48.60
50093;BME280;35974;47.752;10.290;2023-03-21T13:24:01;93704.31;;;15.32;49.40
50093;BME280;35974;47.752;10.290;2023-03-21T13:26:35;93701.59;;;15.27;41.71
50093;BME280;35974;47.752;10.290;2023-03-21T13:29:11;93700.47;;;14.94;39.98
50093;BME280;35974;47.752;10.290;2023-03-21T13:31:43;93680.63;;;15.04;41.65
50093;BME280;35974;47.752;10.290;2023-03-21T13:34:30;93699.06;;;14.51;41.96
50093;BME280;35974;47.752;10.290;2023-03-21T13:36:57;93698.06;;;14.64;40.72
50093;BME280;35974;47.752;10.290;2023-03-21T13:39:26;93703.00;;;15.18;40.67
50093;BME280;35974;47.752;10.290;2023-03-21T13:41:53;93702.94;;;15.01;40.49
50093;BME280;35974;47.752;10.290;2023-03-21T13:53:19;93697.22;;;14.63;41.32
50093;BME280;35974;47.752;10.290;2023-03-21T13:56:06;93669.69;;;14.83;42.93
50093;BME280;35974;47.752;10.290;2023-03-21T13:58:37;93696.03;;;14.83;42.54
50093;BME280;35974;47.752;10.290;2023-03-21T14:04:19;93687.84;;;14.68;41.89
50093;BME280;35974;47.752;10.290;2023-03-21T14:06:55;93671.59;;;14.47;43.83
50093;BME280;35974;47.752;10.290;2023-03-21T14:09:28;93681.19;;;14.77;42.55
50093;BME280;35974;47.752;10.290;2023-03-21T14:11:55;93657.78;;;14.28;42.30
50093;BME280;35974;47.752;10.290;2023-03-21T14:14:39;93655.34;;;14.50;42.38
50093;BME280;35974;47.752;10.290;2023-03-21T14:17:14;93661.13;;;14.23;44.31
50093;BME280;35974;47.752;10.290;2023-03-21T14:19:41;93669.97;;;14.70;44.72
50093;BME280;35974;47.752;10.290;2023-03-21T14:22:10;93676.75;;;14.94;44.06
50093;BME280;35974;47.752;10.290;2023-03-21T14:24:38;93663.00;;;14.92;45.90
50093;BME280;35974;47.752;10.290;2023-03-21T14:27:07;93651.69;;;14.51;46.23
50093;BME280;35974;47.752;10.290;2023-03-21T14:29:42;93572.50;;;14.41;46.64
50093;BME280;35974;47.752;10.290;2023-03-21T14:32:18;93657.88;;;14.45;46.24
50093;BME280;35974;47.752;10.290;2023-03-21T14:34:47;93668.59;;;14.55;47.96